sensor_id;sensor_type;location;lat;lon;timestamp;P1;durP1;ratioP1;P2;durP2;ratioP2
22737;SDS011;11536;50.860;4.286;2024-01-15T00:02:05;18.30;;;7.85;;
22737;SDS011;11536;50.860;4.286;2024-01-15T00:04:35;23.95;;;8.25;;
22737;SDS011;11536;50.860;4.286;2024-01-15T00:07:02;25.88;;;7.25;;
22737;SDS011;11536;50.860;4.286;2024-01-15T00:09:28;22.25;;;8.27;;
22737;SDS011;11536;50.860;4.286;2024-01-15T00:11:54;19.40;;;7.10;;
22737;SDS011;11536;50.860;4.286;2024-01-15T00:14:19;22.15;;;8.73;;
22737;SDS011;11536;50.860;4.286;2024-01-15T00:16:45;19.10;;;7.30;;
22737;SDS011;11536;50.860;4.286;2024-01-15T00:19:11;19.48;;;7.07;;
22737;SDS011;11536;50.860;4.286;2024-01-15T00:21:37;19.58;;;7.18;;
22737;SDS011;11536;50.860;4.286;2024-01-15T00:24:03;18.60;;;7.28;;
22737;SDS011;11536;50.860;4.286;2024-01-15T00:26:29;19.52;;;6.70;;
22737;SDS011;11536;50.860;4.286;2024-01-15T00:28:54;20.77;;;6.35;;
22737;SDS011;11536;50.860;4.286;2024-01-15T00:31:20;17.77;;;6.45;;
22737;SDS011;11536;50.860;4.286;2024-01-15T00:33:45;16.60;;;6.32;;
22737;SDS011;11536;50.860;4.286;2024-01-15T00:36:11;20.48;;;6.18;;
22737;SDS011;11536;50.860;4.286;2024-01-15T00:38:37;16.98;;;5.95;;
22737;SDS011;11536;50.860;4.286;2024-01-15T00:41:02;16.45;;;5.90;;
22737;SDS011;11536;50.860;4.286;2024-01-15T00:43:28;13.48;;;5.70;;
22737;SDS011;11536;50.860;4.286;2024-01-15T00:45:53;12.68;;;5.45;;
22737;SDS011;11536;50.860;4.286;2024-01-15T00:48:19;11.52;;;4.57;;
22737;SDS011;11536;50.860;4.286;2024-01-15T00:50:45;13.57;;;4.40;;
22737;SDS011;11536;50.860;4.286;2024-01-15T00:53:10;12.40;;;5.28;;
22737;SDS011;11536;50.860;4.286;2024-01-15T00:55:37;12.25;;;4.72;;
22737;SDS011;11536;50.860;4.286;2024-01-15T00:58:03;8.70;;;3.58;;
22737;SDS011;11536;50.860;4.286;2024-01-15T01:00:29;10.32;;;4.25;;
22737;SDS011;11536;50.860;4.286;2024-01-15T01:02:54;9.50;;;4.30;;
22737;SDS011;11536;50.860;4.286;2024-01-15T01:05:20;10.93;;;3.67;;
22737;SDS011;11536;50.860;4.286;2024-01-15T01:07:45;10.93;;;3.50;;
22737;SDS011;11536;50.860;4.286;2024-01-15T01:10:11;11.95;;;4.28;;
22737;SDS011;11536;50.860;4.286;2024-01-15T01:12:37;10.40;;;4.35;;
22737;SDS011;11536;50.860;4.286;2024-01-15T01:15:02;8.57;;;3.10;;
22737;SDS011;11536;50.860;4.286;2024-01-15T01:17:28;8.32;;;3.45;;
22737;SDS011;11536;50.860;4.286;2024-01-15T01:19:55;7.07;;;2.78;;
22737;SDS011;11536;50.860;4.286;2024-01-15T01:22:21;10.75;;;3.58;;
22737;SDS011;11536;50.860;4.286;2024-01-15T01:24:46;7.20;;;3.00;;
22737;SDS011;11536;50.860;4.286;2024-01-15T01:27:12;7.45;;;2.88;;
22737;SDS011;11536;50.860;4.286;2024-01-15T01:29:37;7.05;;;2.83;;
22737;SDS011;11536;50.860;4.286;2024-01-15T01:32:03;8.82;;;2.50;;
22737;SDS011;11536;50.860;4.286;2024-01-15T01:34:29;6.10;;;2.33;;
22737;SDS011;11536;50.860;4.286;2024-01-15T01:36:55;5.28;;;2.00;;
22737;SDS011;11536;50.860;4.286;2024-01-15T01:39:20;6.10;;;2.15;;
22737;SDS011;11536;50.860;4.286;2024-01-15T01:41:46;7.38;;;2.25;;
22737;SDS011;11536;50.860;4.286;2024-01-15T01:44:11;7.28;;;2.47;;
22737;SDS011;11536;50.860;4.286;2024-01-15T01:46:37;5.82;;;2.17;;
22737;SDS011;11536;50.860;4.286;2024-01-15T01:49:05;5.75;;;1.98;;
22737;SDS011;11536;50.860;4.286;2024-01-15T01:51:33;7.10;;;1.80;;
22737;SDS011;11536;50.860;4.286;2024-01-15T01:54:00;6.25;;;2.17;;
22737;SDS011;11536;50.860;4.286;2024-01-15T01:56:26;5.80;;;1.77;;
22737;SDS011;11536;50.860;4.286;2024-01-15T01:58:52;5.03;;;1.70;;
22737;SDS011;11536;50.860;4.286;2024-01-15T02:01:17;7.47;;;1.75;;
22737;SDS011;11536;50.860;4.286;2024-01-15T02:03:44;4.20;;;1.60;;
22737;SDS011;11536;50.860;4.286;2024-01-15T02:06:10;4.95;;;1.60;;
22737;SDS011;11536;50.860;4.286;2024-01-15T02:08:36;3.75;;;1.50;;
22737;SDS011;11536;50.860;4.286;2024-01-15T02:11:02;4.18;;;1.30;;
22737;SDS011;11536;50.860;4.286;2024-01-15T02:13:27;6.18;;;1.60;;
22737;SDS011;11536;50.860;4.286;2024-01-15T02:15:53;3.45;;;1.40;;
22737;SDS011;11536;50.860;4.286;2024-01-15T02:18:19;5.22;;;1.38;;
22737;SDS011;11536;50.860;4.286;2024-01-15T02:20:45;3.45;;;1.20;;
22737;SDS011;11536;50.860;4.286;2024-01-15T02:25:37;2.95;;;1.23;;
22737;SDS011;11536;50.860;4.286;2024-01-15T02:28:11;6.10;;;1.45;;
22737;SDS011;11536;50.860;4.286;2024-01-15T02:30:38;8.05;;;1.90;;
22737;SDS011;11536;50.860;4.286;2024-01-15T02:33:05;3.90;;;1.48;;
22737;SDS011;11536;50.860;4.286;2024-01-15T02:35:31;5.70;;;1.25;;
22737;SDS011;11536;50.860;4.286;2024-01-15T02:37:58;5.63;;;1.70;;
22737;SDS011;11536;50.860;4.286;2024-01-15T02:40:23;3.75;;;1.50;;
22737;SDS011;11536;50.860;4.286;2024-01-15T02:42:49;4.38;;;1.60;;
22737;SDS011;11536;50.860;4.286;2024-01-15T02:45:15;6.72;;;1.75;;
22737;SDS011;11536;50.860;4.286;2024-01-15T02:47:40;3.50;;;1.27;;
22737;SDS011;11536;50.860;4.286;2024-01-15T02:50:06;5.00;;;1.80;;
22737;SDS011;11536;50.860;4.286;2024-01-15T02:52:32;7.55;;;2.42;;
22737;SDS011;11536;50.860;4.286;2024-01-15T02:54:57;8.13;;;2.25;;
22737;SDS011;11536;50.860;4.286;2024-01-15T02:57:23;6.30;;;2.30;;
22737;SDS011;11536;50.860;4.286;2024-01-15T02:59:48;6.43;;;2.60;;
22737;SDS011;11536;50.860;4.286;2024-01-15T03:02:14;5.65;;;2.35;;
22737;SDS011;11536;50.860;4.286;2024-01-15T03:04:43;7.65;;;2.47;;
22737;SDS011;11536;50.860;4.286;2024-01-15T03:07:09;7.20;;;2.90;;
22737;SDS011;11536;50.860;4.286;2024-01-15T03:09:35;8.05;;;2.92;;
22737;SDS011;11536;50.860;4.286;2024-01-15T03:12:01;11.30;;;3.63;;
22737;SDS011;11536;50.860;4.286;2024-01-15T03:14:26;10.60;;;3.40;;
22737;SDS011;11536;50.860;4.286;2024-01-15T03:16:52;8.25;;;3.38;;
22737;SDS011;11536;50.860;4.286;2024-01-15T03:19:18;7.15;;;3.17;;
22737;SDS011;11536;50.860;4.286;2024-01-15T03:21:44;8.02;;;3.13;;
22737;SDS011;11536;50.860;4.286;2024-01-15T03:24:10;10.80;;;3.78;;
22737;SDS011;11536;50.860;4.286;2024-01-15T03:26:35;10.77;;;3.85;;
22737;SDS011;11536;50.860;4.286;2024-01-15T03:29:01;9.75;;;3.67;;
22737;SDS011;11536;50.860;4.286;2024-01-15T03:31:27;10.48;;;5.43;;
22737;SDS011;11536;50.860;4.286;2024-01-15T03:33:52;11.73;;;4.22;;
22737;SDS011;11536;50.860;4.286;2024-01-15T03:36:18;11.95;;;4.15;;
22737;SDS011;11536;50.860;4.286;2024-01-15T03:38:44;12.32;;;4.20;;
22737;SDS011;11536;50.860;4.286;2024-01-15T03:41:09;9.68;;;3.90;;
22737;SDS011;11536;50.860;4.286;2024-01-15T03:43:35;12.82;;;4.80;;
22737;SDS011;11536;50.860;4.286;2024-01-15T03:46:00;11.18;;;4.63;;
22737;SDS011;11536;50.860;4.286;2024-01-15T03:48:27;13.35;;;5.43;;
22737;SDS011;11536;50.860;4.286;2024-01-15T03:50:52;10.77;;;4.30;;
22737;SDS011;11536;50.860;4.286;2024-01-15T03:53:18;12.20;;;4.65;;
22737;SDS011;11536;50.860;4.286;2024-01-15T03:55:44;14.95;;;5.13;;
22737;SDS011;11536;50.860;4.286;2024-01-15T03:58:09;16.50;;;5.35;;
22737;SDS011;11536;50.860;4.286;2024-01-15T04:00:35;13.95;;;5.70;;
22737;SDS011;11536;50.860;4.286;2024-01-15T04:03:00;13.02;;;5.72;;
22737;SDS011;11536;50.860;4.286;2024-01-15T04:05:26;16.27;;;6.28;;
22737;SDS011;11536;50.860;4.286;2024-01-15T04:07:52;14.85;;;7.00;;
22737;SDS011;11536;50.860;4.286;2024-01-15T04:10:17;16.38;;;5.70;;
22737;SDS011;11536;50.860;4.286;2024-01-15T04:12:43;16.00;;;6.05;;
22737;SDS011;11536;50.860;4.286;2024-01-15T04:15:11;15.07;;;6.18;;
22737;SDS011;11536;50.860;4.286;2024-01-15T04:17:37;14.90;;;6.20;;
22737;SDS011;11536;50.860;4.286;2024-01-15T04:20:03;15.27;;;6.43;;
22737;SDS011;11536;50.860;4.286;2024-01-15T04:22:29;17.90;;;5.95;;
22737;SDS011;11536;50.860;4.286;2024-01-15T04:24:54;13.52;;;6.57;;
22737;SDS011;11536;50.860;4.286;2024-01-15T04:27:20;13.05;;;5.20;;
22737;SDS011;11536;50.860;4.286;2024-01-15T04:29:46;11.85;;;5.53;;
22737;SDS011;11536;50.860;4.286;2024-01-15T04:32:11;16.10;;;5.30;;
22737;SDS011;11536;50.860;4.286;2024-01-15T04:34:37;12.55;;;5.05;;
22737;SDS011;11536;50.860;4.286;2024-01-15T04:37:03;13.10;;;5.05;;
22737;SDS011;11536;50.860;4.286;2024-01-15T04:39:28;12.30;;;4.18;;
22737;SDS011;11536;50.860;4.286;2024-01-15T04:41:54;12.93;;;4.28;;
22737;SDS011;11536;50.860;4.286;2024-01-15T04:44:20;9.82;;;4.25;;
22737;SDS011;11536;50.860;4.286;2024-01-15T04:46:45;7.80;;;3.20;;
22737;SDS011;11536;50.860;4.286;2024-01-15T04:49:11;7.65;;;2.80;;
22737;SDS011;11536;50.860;4.286;2024-01-15T04:51:37;8.27;;;3.35;;
22737;SDS011;11536;50.860;4.286;2024-01-15T04:54:02;8.15;;;3.25;;
22737;SDS011;11536;50.860;4.286;2024-01-15T04:56:28;8.07;;;2.38;;
22737;SDS011;11536;50.860;4.286;2024-01-15T04:58:54;7.35;;;2.05;;
22737;SDS011;11536;50.860;4.286;2024-01-15T05:01:19;4.60;;;1.60;;
22737;SDS011;11536;50.860;4.286;2024-01-15T05:03:45;4.78;;;1.60;;
22737;SDS011;11536;50.860;4.286;2024-01-15T05:06:10;3.30;;;1.17;;
22737;SDS011;11536;50.860;4.286;2024-01-15T05:08:36;4.93;;;1.80;;
22737;SDS011;11536;50.860;4.286;2024-01-15T05:11:02;7.32;;;1.52;;
22737;SDS011;11536;50.860;4.286;2024-01-15T05:13:27;3.53;;;1.40;;
22737;SDS011;11536;50.860;4.286;2024-01-15T05:15:53;2.90;;;1.00;;
22737;SDS011;11536;50.860;4.286;2024-01-15T05:18:19;5.47;;;1.77;;
22737;SDS011;11536;50.860;4.286;2024-01-15T05:20:44;5.82;;;1.70;;
22737;SDS011;11536;50.860;4.286;2024-01-15T05:23:10;10.90;;;2.05;;
22737;SDS011;11536;50.860;4.286;2024-01-15T05:25:36;3.03;;;1.05;;
22737;SDS011;11536;50.860;4.286;2024-01-15T05:28:01;3.70;;;0.93;;
22737;SDS011;11536;50.860;4.286;2024-01-15T05:30:27;2.75;;;0.88;;
22737;SDS011;11536;50.860;4.286;2024-01-15T05:32:53;3.67;;;1.08;;
22737;SDS011;11536;50.860;4.286;2024-01-15T05:35:19;5.43;;;1.02;;
22737;SDS011;11536;50.860;4.286;2024-01-15T05:37:45;4.90;;;1.20;;
22737;SDS011;11536;50.860;4.286;2024-01-15T05:40:11;3.17;;;0.90;;
22737;SDS011;11536;50.860;4.286;2024-01-15T05:42:41;2.30;;;0.60;;
22737;SDS011;11536;50.860;4.286;2024-01-15T05:45:06;3.08;;;0.90;;
22737;SDS011;11536;50.860;4.286;2024-01-15T05:47:32;2.97;;;0.60;;
22737;SDS011;11536;50.860;4.286;2024-01-15T05:49:58;4.30;;;1.10;;
22737;SDS011;11536;50.860;4.286;2024-01-15T05:52:25;3.22;;;0.63;;
22737;SDS011;11536;50.860;4.286;2024-01-15T05:54:51;1.90;;;0.50;;
22737;SDS011;11536;50.860;4.286;2024-01-15T05:57:16;1.80;;;0.55;;
22737;SDS011;11536;50.860;4.286;2024-01-15T05:59:43;1.77;;;0.60;;
22737;SDS011;11536;50.860;4.286;2024-01-15T06:02:09;5.10;;;0.57;;
22737;SDS011;11536;50.860;4.286;2024-01-15T06:04:35;4.13;;;0.63;;
22737;SDS011;11536;50.860;4.286;2024-01-15T06:07:01;3.65;;;0.70;;
22737;SDS011;11536;50.860;4.286;2024-01-15T06:09:27;2.05;;;0.50;;
22737;SDS011;11536;50.860;4.286;2024-01-15T06:11:53;1.10;;;0.40;;
22737;SDS011;11536;50.860;4.286;2024-01-15T06:14:18;4.15;;;0.80;;
22737;SDS011;11536;50.860;4.286;2024-01-15T06:16:44;3.28;;;0.60;;
22737;SDS011;11536;50.860;4.286;2024-01-15T06:19:10;4.68;;;0.98;;
22737;SDS011;11536;50.860;4.286;2024-01-15T06:21:35;3.42;;;0.57;;
22737;SDS011;11536;50.860;4.286;2024-01-15T06:24:01;1.95;;;0.52;;
22737;SDS011;11536;50.860;4.286;2024-01-15T06:26:27;1.77;;;0.60;;
22737;SDS011;11536;50.860;4.286;2024-01-15T06:28:52;6.07;;;0.88;;
22737;SDS011;11536;50.860;4.286;2024-01-15T06:31:18;5.07;;;0.98;;
22737;SDS011;11536;50.860;4.286;2024-01-15T06:33:44;3.58;;;1.15;;
22737;SDS011;11536;50.860;4.286;2024-01-15T06:36:12;5.05;;;0.80;;
22737;SDS011;11536;50.860;4.286;2024-01-15T06:38:38;4.35;;;0.95;;
22737;SDS011;11536;50.860;4.286;2024-01-15T06:41:03;6.47;;;0.95;;
22737;SDS011;11536;50.860;4.286;2024-01-15T06:43:29;5.05;;;1.30;;
22737;SDS011;11536;50.860;4.286;2024-01-15T06:45:55;3.20;;;0.90;;
22737;SDS011;11536;50.860;4.286;2024-01-15T06:48:20;3.95;;;0.77;;
22737;SDS011;11536;50.860;4.286;2024-01-15T06:50:46;5.88;;;1.58;;
22737;SDS011;11536;50.860;4.286;2024-01-15T06:53:11;5.30;;;1.05;;
22737;SDS011;11536;50.860;4.286;2024-01-15T06:55:37;2.97;;;1.08;;
22737;SDS011;11536;50.860;4.286;2024-01-15T06:58:04;5.10;;;1.40;;
22737;SDS011;11536;50.860;4.286;2024-01-15T07:00:30;3.50;;;0.90;;
22737;SDS011;11536;50.860;4.286;2024-01-15T07:02:56;3.85;;;1.20;;
22737;SDS011;11536;50.860;4.286;2024-01-15T07:05:21;2.17;;;0.57;;
22737;SDS011;11536;50.860;4.286;2024-01-15T07:07:48;3.90;;;1.08;;
22737;SDS011;11536;50.860;4.286;2024-01-15T07:10:14;4.65;;;1.00;;
22737;SDS011;11536;50.860;4.286;2024-01-15T07:12:41;2.92;;;0.73;;
22737;SDS011;11536;50.860;4.286;2024-01-15T07:15:08;4.80;;;0.70;;
22737;SDS011;11536;50.860;4.286;2024-01-15T07:17:34;3.20;;;0.93;;
22737;SDS011;11536;50.860;4.286;2024-01-15T07:20:00;3.53;;;0.88;;
22737;SDS011;11536;50.860;4.286;2024-01-15T07:22:26;1.83;;;0.80;;
22737;SDS011;11536;50.860;4.286;2024-01-15T07:24:52;4.68;;;1.08;;
22737;SDS011;11536;50.860;4.286;2024-01-15T07:27:18;9.52;;;1.30;;
22737;SDS011;11536;50.860;4.286;2024-01-15T07:29:44;4.00;;;1.55;;
22737;SDS011;11536;50.860;4.286;2024-01-15T07:32:10;3.83;;;1.20;;
22737;SDS011;11536;50.860;4.286;2024-01-15T07:34:36;6.40;;;1.67;;
22737;SDS011;11536;50.860;4.286;2024-01-15T07:37:02;6.20;;;1.70;;
22737;SDS011;11536;50.860;4.286;2024-01-15T07:39:28;4.10;;;1.73;;
22737;SDS011;11536;50.860;4.286;2024-01-15T07:41:54;7.43;;;1.95;;
22737;SDS011;11536;50.860;4.286;2024-01-15T07:44:19;5.57;;;1.75;;
22737;SDS011;11536;50.860;4.286;2024-01-15T07:46:45;5.85;;;1.73;;
22737;SDS011;11536;50.860;4.286;2024-01-15T07:49:12;6.75;;;2.10;;
22737;SDS011;11536;50.860;4.286;2024-01-15T07:51:38;11.93;;;2.60;;
22737;SDS011;11536;50.860;4.286;2024-01-15T07:54:05;8.00;;;2.33;;
22737;SDS011;11536;50.860;4.286;2024-01-15T07:56:31;9.10;;;2.20;;
22737;SDS011;11536;50.860;4.286;2024-01-15T07:59:03;7.78;;;1.88;;
22737;SDS011;11536;50.860;4.286;2024-01-15T08:01:29;8.50;;;2.25;;
22737;SDS011;11536;50.860;4.286;2024-01-15T08:03:55;6.95;;;1.80;;
22737;SDS011;11536;50.860;4.286;2024-01-15T08:06:20;9.07;;;1.80;;
22737;SDS011;11536;50.860;4.286;2024-01-15T08:08:46;5.95;;;1.70;;
22737;SDS011;11536;50.860;4.286;2024-01-15T08:11:11;5.07;;;1.65;;
22737;SDS011;11536;50.860;4.286;2024-01-15T08:13:37;5.78;;;1.83;;
22737;SDS011;11536;50.860;4.286;2024-01-15T08:16:03;8.18;;;1.65;;
22737;SDS011;11536;50.860;4.286;2024-01-15T08:18:28;5.70;;;1.60;;
22737;SDS011;11536;50.860;4.286;2024-01-15T08:20:54;6.10;;;1.80;;
22737;SDS011;11536;50.860;4.286;2024-01-15T08:23:20;6.57;;;1.48;;
22737;SDS011;11536;50.860;4.286;2024-01-15T08:25:46;4.78;;;1.45;;
22737;SDS011;11536;50.860;4.286;2024-01-15T08:28:12;5.60;;;1.27;;
22737;SDS011;11536;50.860;4.286;2024-01-15T08:30:37;4.18;;;1.70;;
22737;SDS011;11536;50.860;4.286;2024-01-15T08:33:03;8.35;;;2.00;;
22737;SDS011;11536;50.860;4.286;2024-01-15T08:35:29;6.53;;;1.30;;
22737;SDS011;11536;50.860;4.286;2024-01-15T08:37:54;6.97;;;1.73;;
22737;SDS011;11536;50.860;4.286;2024-01-15T08:40:20;3.40;;;1.10;;
22737;SDS011;11536;50.860;4.286;2024-01-15T08:42:46;4.70;;;1.38;;
22737;SDS011;11536;50.860;4.286;2024-01-15T08:45:12;5.82;;;1.40;;
22737;SDS011;11536;50.860;4.286;2024-01-15T08:47:37;6.20;;;1.33;;
22737;SDS011;11536;50.860;4.286;2024-01-15T08:50:03;5.72;;;1.17;;
22737;SDS011;11536;50.860;4.286;2024-01-15T08:52:30;3.70;;;1.02;;
22737;SDS011;11536;50.860;4.286;2024-01-15T08:54:59;7.47;;;1.27;;
22737;SDS011;11536;50.860;4.286;2024-01-15T08:57:26;6.07;;;1.30;;
22737;SDS011;11536;50.860;4.286;2024-01-15T08:59:51;5.55;;;1.17;;
22737;SDS011;11536;50.860;4.286;2024-01-15T09:02:17;7.60;;;1.35;;
22737;SDS011;11536;50.860;4.286;2024-01-15T09:04:42;3.65;;;0.82;;
22737;SDS011;11536;50.860;4.286;2024-01-15T09:07:08;7.50;;;1.10;;
22737;SDS011;11536;50.860;4.286;2024-01-15T09:09:33;8.48;;;1.15;;
22737;SDS011;11536;50.860;4.286;2024-01-15T09:12:00;4.18;;;1.52;;
22737;SDS011;11536;50.860;4.286;2024-01-15T09:14:26;6.93;;;1.15;;
22737;SDS011;11536;50.860;4.286;2024-01-15T09:16:54;4.47;;;1.45;;
22737;SDS011;11536;50.860;4.286;2024-01-15T09:19:19;4.63;;;1.05;;
22737;SDS011;11536;50.860;4.286;2024-01-15T09:21:45;2.85;;;0.80;;
22737;SDS011;11536;50.860;4.286;2024-01-15T09:24:10;3.75;;;0.77;;
22737;SDS011;11536;50.860;4.286;2024-01-15T09:26:36;3.67;;;0.85;;
22737;SDS011;11536;50.860;4.286;2024-01-15T09:29:02;4.50;;;1.27;;
22737;SDS011;11536;50.860;4.286;2024-01-15T09:31:28;9.02;;;1.55;;
22737;SDS011;11536;50.860;4.286;2024-01-15T09:33:53;9.95;;;1.83;;
22737;SDS011;11536;50.860;4.286;2024-01-15T09:36:27;10.07;;;1.85;;
22737;SDS011;11536;50.860;4.286;2024-01-15T09:38:53;8.00;;;2.03;;
22737;SDS011;11536;50.860;4.286;2024-01-15T09:41:19;9.80;;;1.65;;
22737;SDS011;11536;50.860;4.286;2024-01-15T09:43:45;8.30;;;1.95;;
22737;SDS011;11536;50.860;4.286;2024-01-15T09:46:11;7.82;;;1.30;;
22737;SDS011;11536;50.860;4.286;2024-01-15T09:48:37;7.13;;;1.48;;
22737;SDS011;11536;50.860;4.286;2024-01-15T09:51:03;5.38;;;0.95;;
22737;SDS011;11536;50.860;4.286;2024-01-15T09:53:31;6.43;;;1.10;;
22737;SDS011;11536;50.860;4.286;2024-01-15T09:55:57;6.40;;;1.20;;
22737;SDS011;11536;50.860;4.286;2024-01-15T09:58:23;10.10;;;1.17;;
22737;SDS011;11536;50.860;4.286;2024-01-15T10:00:49;4.55;;;0.80;;
22737;SDS011;11536;50.860;4.286;2024-01-15T10:03:16;6.25;;;1.08;;
22737;SDS011;11536;50.860;4.286;2024-01-15T10:05:43;3.08;;;0.68;;
22737;SDS011;11536;50.860;4.286;2024-01-15T10:08:09;6.72;;;1.05;;
22737;SDS011;11536;50.860;4.286;2024-01-15T10:10:36;3.33;;;0.77;;
22737;SDS011;11536;50.860;4.286;2024-01-15T10:13:03;6.18;;;1.42;;
22737;SDS011;11536;50.860;4.286;2024-01-15T10:15:30;4.18;;;1.00;;
22737;SDS011;11536;50.860;4.286;2024-01-15T10:18:02;5.38;;;1.25;;
22737;SDS011;11536;50.860;4.286;2024-01-15T10:20:29;3.90;;;1.10;;
22737;SDS011;11536;50.860;4.286;2024-01-15T10:22:57;7.38;;;0.98;;
22737;SDS011;11536;50.860;4.286;2024-01-15T10:25:23;5.55;;;1.02;;
22737;SDS011;11536;50.860;4.286;2024-01-15T10:28:00;5.22;;;1.05;;
22737;SDS011;11536;50.860;4.286;2024-01-15T10:30:27;3.50;;;0.68;;
22737;SDS011;11536;50.860;4.286;2024-01-15T10:32:59;4.03;;;0.85;;
22737;SDS011;11536;50.860;4.286;2024-01-15T10:35:26;4.20;;;0.80;;
22737;SDS011;11536;50.860;4.286;2024-01-15T10:37:55;8.85;;;1.20;;
22737;SDS011;11536;50.860;4.286;2024-01-15T10:40:21;5.70;;;0.90;;
22737;SDS011;11536;50.860;4.286;2024-01-15T10:42:47;5.15;;;1.17;;
22737;SDS011;11536;50.860;4.286;2024-01-15T10:45:13;4.15;;;1.10;;
22737;SDS011;11536;50.860;4.286;2024-01-15T10:47:39;4.90;;;0.82;;
22737;SDS011;11536;50.860;4.286;2024-01-15T10:50:06;6.47;;;1.25;;
22737;SDS011;11536;50.860;4.286;2024-01-15T10:52:33;5.90;;;1.02;;
22737;SDS011;11536;50.860;4.286;2024-01-15T10:55:00;3.25;;;0.90;;
22737;SDS011;11536;50.860;4.286;2024-01-15T10:57:27;5.40;;;0.80;;
22737;SDS011;11536;50.860;4.286;2024-01-15T10:59:54;4.03;;;0.88;;
22737;SDS011;11536;50.860;4.286;2024-01-15T11:02:20;4.05;;;0.82;;
22737;SDS011;11536;50.860;4.286;2024-01-15T11:04:46;4.53;;;0.85;;
22737;SDS011;11536;50.860;4.286;2024-01-15T11:07:12;5.78;;;1.10;;
22737;SDS011;11536;50.860;4.286;2024-01-15T11:09:39;3.00;;;0.98;;
22737;SDS011;11536;50.860;4.286;2024-01-15T11:12:09;7.43;;;0.70;;
22737;SDS011;11536;50.860;4.286;2024-01-15T11:14:40;5.72;;;1.10;;
22737;SDS011;11536;50.860;4.286;2024-01-15T11:17:13;8.65;;;1.15;;
22737;SDS011;11536;50.860;4.286;2024-01-15T11:19:46;7.72;;;1.30;;
22737;SDS011;11536;50.860;4.286;2024-01-15T11:25:13;3.38;;;0.85;;
22737;SDS011;11536;50.860;4.286;2024-01-15T11:27:43;6.72;;;0.50;;
22737;SDS011;11536;50.860;4.286;2024-01-15T11:30:16;4.63;;;1.00;;
22737;SDS011;11536;50.860;4.286;2024-01-15T11:32:42;2.00;;;0.50;;
22737;SDS011;11536;50.860;4.286;2024-01-15T11:35:07;3.30;;;0.52;;
22737;SDS011;11536;50.860;4.286;2024-01-15T11:40:22;6.18;;;0.70;;
22737;SDS011;11536;50.860;4.286;2024-01-15T11:43:02;3.30;;;0.45;;
22737;SDS011;11536;50.860;4.286;2024-01-15T11:45:28;1.17;;;0.50;;
22737;SDS011;11536;50.860;4.286;2024-01-15T11:48:14;2.70;;;0.73;;
22737;SDS011;11536;50.860;4.286;2024-01-15T11:50:45;7.18;;;0.75;;
22737;SDS011;11536;50.860;4.286;2024-01-15T11:55:44;9.93;;;1.25;;
22737;SDS011;11536;50.860;4.286;2024-01-15T11:58:10;4.20;;;0.63;;
22737;SDS011;11536;50.860;4.286;2024-01-15T12:00:50;2.60;;;0.70;;
22737;SDS011;11536;50.860;4.286;2024-01-15T12:03:17;3.10;;;0.55;;
22737;SDS011;11536;50.860;4.286;2024-01-15T12:05:45;9.23;;;1.05;;
22737;SDS011;11536;50.860;4.286;2024-01-15T12:08:11;3.85;;;0.98;;
22737;SDS011;11536;50.860;4.286;2024-01-15T12:10:37;4.15;;;0.50;;
22737;SDS011;11536;50.860;4.286;2024-01-15T12:13:13;4.63;;;0.77;;
22737;SDS011;11536;50.860;4.286;2024-01-15T12:15:40;4.28;;;0.90;;
22737;SDS011;11536;50.860;4.286;2024-01-15T12:18:07;5.82;;;1.02;;
22737;SDS011;11536;50.860;4.286;2024-01-15T12:20:34;3.80;;;0.63;;
22737;SDS011;11536;50.860;4.286;2024-01-15T12:23:00;1.83;;;0.50;;
22737;SDS011;11536;50.860;4.286;2024-01-15T12:25:28;3.05;;;0.80;;
22737;SDS011;11536;50.860;4.286;2024-01-15T12:27:55;4.15;;;0.82;;
22737;SDS011;11536;50.860;4.286;2024-01-15T12:30:21;5.93;;;0.85;;
22737;SDS011;11536;50.860;4.286;2024-01-15T12:32:47;5.65;;;1.02;;
22737;SDS011;11536;50.860;4.286;2024-01-15T12:35:13;3.88;;;0.60;;
22737;SDS011;11536;50.860;4.286;2024-01-15T12:37:40;6.40;;;1.10;;
22737;SDS011;11536;50.860;4.286;2024-01-15T12:40:07;3.95;;;0.50;;
22737;SDS011;11536;50.860;4.286;2024-01-15T12:42:35;4.63;;;0.70;;
22737;SDS011;11536;50.860;4.286;2024-01-15T12:45:01;3.25;;;0.65;;
22737;SDS011;11536;50.860;4.286;2024-01-15T12:47:29;5.70;;;0.90;;
22737;SDS011;11536;50.860;4.286;2024-01-15T12:49:55;5.28;;;1.00;;
22737;SDS011;11536;50.860;4.286;2024-01-15T12:52:22;7.97;;;0.80;;
22737;SDS011;11536;50.860;4.286;2024-01-15T12:54:51;6.05;;;0.70;;
22737;SDS011;11536;50.860;4.286;2024-01-15T12:57:17;5.38;;;0.80;;
22737;SDS011;11536;50.860;4.286;2024-01-15T12:59:45;5.10;;;0.55;;
22737;SDS011;11536;50.860;4.286;2024-01-15T13:02:12;4.90;;;0.70;;
22737;SDS011;11536;50.860;4.286;2024-01-15T13:04:38;3.72;;;0.77;;
22737;SDS011;11536;50.860;4.286;2024-01-15T13:07:07;3.10;;;0.57;;
22737;SDS011;11536;50.860;4.286;2024-01-15T13:09:33;3.15;;;0.63;;
22737;SDS011;11536;50.860;4.286;2024-01-15T13:12:00;3.70;;;0.60;;
22737;SDS011;11536;50.860;4.286;2024-01-15T13:14:28;2.92;;;0.75;;
22737;SDS011;11536;50.860;4.286;2024-01-15T13:16:54;6.55;;;0.70;;
22737;SDS011;11536;50.860;4.286;2024-01-15T13:19:20;5.57;;;0.82;;
22737;SDS011;11536;50.860;4.286;2024-01-15T13:21:47;3.97;;;0.73;;
22737;SDS011;11536;50.860;4.286;2024-01-15T13:24:12;9.00;;;0.70;;
22737;SDS011;11536;50.860;4.286;2024-01-15T13:26:39;2.72;;;0.68;;
22737;SDS011;11536;50.860;4.286;2024-01-15T13:29:04;10.93;;;1.50;;
22737;SDS011;11536;50.860;4.286;2024-01-15T13:31:31;3.83;;;0.60;;
22737;SDS011;11536;50.860;4.286;2024-01-15T13:33:59;4.43;;;0.80;;
22737;SDS011;11536;50.860;4.286;2024-01-15T13:36:25;4.55;;;0.57;;
22737;SDS011;11536;50.860;4.286;2024-01-15T13:38:52;7.38;;;1.08;;
22737;SDS011;11536;50.860;4.286;2024-01-15T13:41:19;4.65;;;0.63;;
22737;SDS011;11536;50.860;4.286;2024-01-15T13:43:48;4.53;;;0.90;;
22737;SDS011;11536;50.860;4.286;2024-01-15T13:46:14;3.92;;;0.70;;
22737;SDS011;11536;50.860;4.286;2024-01-15T13:48:40;5.65;;;1.20;;
22737;SDS011;11536;50.860;4.286;2024-01-15T13:51:06;6.97;;;0.80;;
22737;SDS011;11536;50.860;4.286;2024-01-15T13:53:31;8.65;;;0.85;;
22737;SDS011;11536;50.860;4.286;2024-01-15T13:55:57;8.52;;;1.15;;
22737;SDS011;11536;50.860;4.286;2024-01-15T13:58:22;9.35;;;1.95;;
22737;SDS011;11536;50.860;4.286;2024-01-15T14:00:50;5.28;;;0.70;;
22737;SDS011;11536;50.860;4.286;2024-01-15T14:03:16;5.00;;;0.90;;
22737;SDS011;11536;50.860;4.286;2024-01-15T14:05:42;6.53;;;1.40;;
22737;SDS011;11536;50.860;4.286;2024-01-15T14:08:08;5.05;;;0.80;;
22737;SDS011;11536;50.860;4.286;2024-01-15T14:10:33;3.33;;;0.60;;
22737;SDS011;11536;50.860;4.286;2024-01-15T14:12:59;4.95;;;0.60;;
22737;SDS011;11536;50.860;4.286;2024-01-15T14:15:24;1.88;;;0.60;;
22737;SDS011;11536;50.860;4.286;2024-01-15T14:17:50;7.75;;;0.80;;
22737;SDS011;11536;50.860;4.286;2024-01-15T14:20:17;5.88;;;0.90;;
22737;SDS011;11536;50.860;4.286;2024-01-15T14:22:43;5.43;;;0.70;;
22737;SDS011;11536;50.860;4.286;2024-01-15T14:25:08;4.80;;;1.10;;
22737;SDS011;11536;50.860;4.286;2024-01-15T14:27:34;5.18;;;0.90;;
22737;SDS011;11536;50.860;4.286;2024-01-15T14:30:01;3.80;;;0.63;;
22737;SDS011;11536;50.860;4.286;2024-01-15T14:32:27;4.68;;;1.05;;
22737;SDS011;11536;50.860;4.286;2024-01-15T14:34:53;6.75;;;1.02;;
22737;SDS011;11536;50.860;4.286;2024-01-15T14:37:19;7.53;;;1.23;;
22737;SDS011;11536;50.860;4.286;2024-01-15T14:39:45;4.15;;;1.00;;
22737;SDS011;11536;50.860;4.286;2024-01-15T14:42:11;4.60;;;1.10;;
22737;SDS011;11536;50.860;4.286;2024-01-15T14:44:37;5.82;;;1.13;;
22737;SDS011;11536;50.860;4.286;2024-01-15T14:47:05;3.28;;;0.85;;
22737;SDS011;11536;50.860;4.286;2024-01-15T14:49:31;3.65;;;0.85;;
22737;SDS011;11536;50.860;4.286;2024-01-15T14:51:57;4.97;;;1.00;;